Weather observations for the past three days for
Mondell Field
Imperial (Metric)
Date Time (mdt) Wind (mph) Vis. (mi.) Weather Sky Cond. Temperature (ºF) Relative Humidity Wind Chill (°F) Heat Index (°F) Pressure Precipitation (in)
Air Dwpt 6 hour altimeter (in) sea level (mb) 1 hr 3 hr 6 hr
Max. Min.
06 06:30 N 7 10.00 Fair CLR 24.8 12.2 59% 18 30.11 0.0
06 06:10 N 10 10.00 Fair CLR 23 12.2 63% 13 30.11 0.0
06 05:50 N 12 10.00 Fair CLR 23 12.2 63% 13 30.1 0.0
06 05:30 N 7 10.00 Fair CLR 21.2 12.2 68% 13 30.1 0.0
06 05:10 N 9 10.00 Fair CLR 21.2 12.2 68% 12 30.1 0.0
06 04:50 N 9 10.00 Fair CLR 23 12.2 63% 14 30.1 0.0
06 04:30 N 9 10.00 Fair CLR 23 12.2 63% 14 30.1 0.0
06 04:10 N 10 10.00 Fair CLR 23 12.2 63% 13 30.09 0.0
06 03:50 N 10 10.00 Fair CLR 23 12.2 63% 13 30.09 0.0
06 03:30 N 9 10.00 Fair CLR 23 12.2 63% 14 30.09 0.0
06 03:10 Calm 10.00 Fair CLR 23 12.2 63% 30.1 0.0
06 02:50 Calm 10.00 Fair CLR 21.2 12.2 68% 30.09 0.0
06 02:30 Calm 10.00 Fair CLR 23 12.2 63% 30.09 0.0
06 02:10 Calm 10.00 Fair CLR 21.2 12.2 68% 30.09 0.0
06 01:50 N 7 10.00 Fair CLR 23 12.2 63% 16 30.09 0.0
06 01:30 N 5 10.00 Fair CLR 23 12.2 63% 18 30.09 0.0
06 01:10 NW 5 10.00 Fair CLR 24.8 12.2 59% 20 30.09 0.0
06 00:50 N 5 10.00 Fair CLR 24.8 12.2 59% 20 30.09 0.0
06 00:30 N 7 10.00 Fair CLR 26.6 14 59% 20 30.08 0.0
06 00:10 N 5 10.00 Fair CLR 26.6 14 59% 22 30.08 0.0
05 23:50 N 6 10.00 Fair CLR 28.4 14 55% 23 30.08 0.0
05 23:30 N 7 10.00 Fair CLR 28.4 14 55% 22 30.07 0.0
05 23:10 N 8 10.00 Fair CLR 30.2 15.8 55% 23 30.07 0.0
05 22:50 NW 8 10.00 Fair CLR 30.2 17.6 59% 23 30.07 0.0
05 22:30 N 6 10.00 Fair CLR 28.4 17.6 64% 23 30.07 0.0
05 22:10 N 6 10.00 Fair CLR 30.2 17.6 59% 25 30.06 0.0
05 21:50 NW 5 10.00 Fair CLR 32 19.4 60% 28 30.06 0.0
05 21:30 N 6 10.00 Fair CLR 32 19.4 60% 27 30.06 0.0
05 21:10 NE 7 10.00 Fair CLR 32 19.4 60% 26 30.05 0.0
05 20:50 N 5 10.00 Fair CLR 33.8 17.6 51% 30 30.04 0.0
05 20:30 N 7 10.00 Partly Cloudy SCT048 SCT065 SCT070 35.6 19.4 52% 31 30.03 0.0
05 20:10 N 10 10.00 Partly Cloudy SCT070 35.6 17.6 48% 29 30.02 0.0
05 19:50 N 12 10.00 Mostly Cloudy BKN070 37.4 17.6 45% 30 30.02 0.0
05 19:30 N 9 10.00 Mostly Cloudy BKN070 39.2 15.8 39% 34 30.01 0.0
05 19:10 NW 14 10.00 Partly Cloudy SCT070 39.2 14 36% 32 30 0.0
05 18:50 NW 14 10.00 Partly Cloudy SCT050 SCT060 41 14 33% 34 29.99 0.0
05 18:30 N 16 10.00 Mostly Cloudy BKN050 BKN060 42.8 15.8 34% 36 29.98 0.0
05 18:10 N 18 G 23 10.00 Partly Cloudy SCT050 SCT060 42.8 14 31% 35 29.97 0.0
05 17:50 N 15 G 23 10.00 Partly Cloudy SCT060 SCT070 42.8 17.6 36% 36 29.97 0.0
05 17:30 N 16 10.00 Partly Cloudy SCT065 SCT080 44.6 12.2 27% 38 29.97 0.0
05 17:10 NW 17 G 24 10.00 Partly Cloudy SCT060 SCT070 44.6 14 29% 38 29.96 0.0
05 16:50 NW 13 10.00 Fair CLR 44.6 12.2 27% 39 29.97 0.0
05 16:30 NW 18 G 25 10.00 Partly Cloudy SCT070 44.6 12.2 27% 37 29.95 0.0
05 16:10 NW 23 G 28 10.00 Partly Cloudy and Breezy SCT070 SCT085 44.6 10.4 25% 37 29.95 0.0
05 15:50 NW 20 G 26 10.00 Partly Cloudy SCT070 44.6 8.6 23% 37 29.95 0.0
05 15:30 N 15 G 24 10.00 Partly Cloudy SCT070 44.6 8.6 23% 38 29.95 0.0
05 15:10 NW 15 G 25 10.00 Mostly Cloudy SCT070 BKN085 46.4 10.4 23% 41 29.95 0.0
05 14:50 NW 17 G 25 10.00 Partly Cloudy SCT070 46.4 10.4 23% 40 29.95 0.0
05 14:30 N 17 G 30 10.00 Partly Cloudy SCT070 46.4 8.6 21% 40 29.95 0.0
05 14:10 N 18 G 24 10.00 Partly Cloudy SCT070 46.4 10.4 23% 40 29.95 0.0
05 13:50 N 21 G 28 10.00 Partly Cloudy and Breezy SCT070 46.4 10.4 23% 39 29.95 0.0
05 13:30 NW 20 G 32 10.00 Fair CLR 46.4 10.4 23% 40 29.95 0.0
05 13:10 NW 18 G 29 10.00 Partly Cloudy SCT065 44.6 10.4 25% 37 29.95 0.0
05 12:50 NW 18 G 25 10.00 Partly Cloudy SCT065 44.6 10.4 25% 37 29.95 0.0
05 12:30 NW 20 G 28 10.00 Partly Cloudy SCT065 44.6 12.2 27% 37 29.96 0.0
05 12:10 N 16 G 25 10.00 Fair CLR 46.4 10.4 23% 40 29.96 0.0
05 11:50 N 17 G 25 10.00 Fair CLR 44.6 12.2 27% 38 29.96 0.0
05 11:30 NW 21 G 25 10.00 Fair and Breezy CLR 42.8 12.2 29% 35 29.97 0.0
05 11:10 N 17 G 25 10.00 Fair CLR 42.8 12.2 29% 35 29.97 0.0
05 10:50 N 16 G 24 10.00 Partly Cloudy SCT050 42.8 14 31% 36 29.98 0.0
05 10:30 NW 15 G 24 10.00 Partly Cloudy SCT050 41 14 33% 34 29.98 0.0
05 10:10 NW 18 G 25 10.00 Partly Cloudy SCT050 41 14 33% 33 29.98 0.0
05 09:50 NW 14 G 23 10.00 Fair CLR 39.2 14 36% 32 29.98 0.0
05 09:30 NW 16 G 21 10.00 Fair CLR 39.2 14 36% 31 29.99 0.0
05 09:10 NW 18 G 28 10.00 Fair CLR 37.4 14 38% 28 29.99 0.0
05 08:50 NW 16 10.00 Fair CLR 37.4 17.6 45% 29 29.99 0.0
05 08:30 N 13 10.00 Fair CLR 37.4 17.6 45% 30 29.99 0.0
05 08:10 NW 15 10.00 Fair CLR 37.4 19.4 48% 29 30 0.0
05 07:50 NW 10 10.00 Partly Cloudy SCT055 35.6 21.2 56% 29 30 0.0
05 07:30 N 8 10.00 Partly Cloudy SCT055 35.6 23 60% 30 29.99 0.0
05 07:10 NW 6 10.00 Fair CLR 33.8 24.8 70% 29 29.99 0.0
05 06:50 NW 6 10.00 Fair CLR 32 24.8 75% 27 29.98 0.0
05 06:30 NW 6 10.00 Partly Cloudy SCT048 SCT060 32 24.8 75% 27 29.98 0.0
05 05:50 NW 6 10.00 Fair CLR 28.4 23 80% 23 29.95 0.0
05 05:30 NW 7 10.00 Fair CLR 32 24.8 75% 26 29.95 0.0
05 05:10 N 8 10.00 Fair CLR 32 26.6 80% 25 29.95 0.0
05 04:50 N 7 10.00 Fair CLR 32 26.6 80% 26 29.94 0.0
05 04:30 NW 8 10.00 Partly Cloudy SCT090 32 28.4 87% 25 29.94 0.0
05 04:10 N 6 10.00 Partly Cloudy SCT090 32 28.4 87% 27 29.94 0.0
05 03:50 N 7 10.00 Partly Cloudy SCT080 33.8 30.2 87% 28 29.94 0.0
05 03:30 N 5 10.00 Partly Cloudy SCT080 33.8 30.2 87% 30 29.94 0.0
05 03:10 NW 6 10.00 Mostly Cloudy BKN090 35.6 30.2 81% 31 29.94 0.0
05 02:50 N 7 10.00 Overcast BKN080 OVC100 35.6 32 87% 31 29.94 0.0
05 02:30 N 7 10.00 Overcast SCT041 BKN065 OVC100 37.4 30.2 75% 33 29.93 0.0
05 02:10 N 9 10.00 Light Drizzle SCT041 BKN050 OVC065 37.4 30.2 75% 31 29.94 0.0
05 01:50 N 12 G 18 10.00 Overcast SCT041 SCT050 OVC100 39.2 30.2 70% 33 29.94 0.0
05 01:30 N 14 G 18 10.00 Overcast OVC100 39.2 30.2 70% 32 29.93 0.0
05 01:10 N 10 10.00 Mostly Cloudy SCT050 BKN100 39.2 30.2 70% 33 29.93 0.0
05 00:50 N 10 10.00 Partly Cloudy SCT060 41 30.2 66% 35 29.93 0.0
05 00:30 N 10 10.00 Partly Cloudy SCT060 SCT070 SCT080 41 28.4 61% 35 29.93 0.0
05 00:10 N 13 G 16 10.00 Overcast OVC060 42.8 26.6 53% 37 29.93 0.0
04 23:50 NW 7 10.00 Overcast BKN060 BKN070 OVC080 42.8 26.6 53% 39 29.93 0.0
04 23:30 NW 3 10.00 Mostly Cloudy SCT060 SCT070 BKN080 41 26.6 57% 29.93 0.0
04 23:10 Calm 10.00 Overcast OVC065 41 28.4 61% 29.92 0.0
04 22:50 Calm 10.00 Overcast SCT065 BKN075 OVC110 41 28.4 61% 29.93 0.0
04 22:30 NW 3 10.00 Overcast OVC110 41 28.4 61% 29.93 0.0
04 22:10 NW 5 10.00 Overcast BKN070 BKN085 OVC110 41 28.4 61% 38 29.93 0.0
04 21:50 Calm 10.00 Overcast BKN070 BKN080 OVC110 41 28.4 61% 29.93 0.0
04 21:30 NW 3 10.00 Overcast SCT070 SCT080 OVC110 41 28.4 61% 29.93 0.0
04 21:10 Calm 10.00 Overcast OVC120 42.8 28.4 57% 29.93 0.0
04 20:50 NW 3 10.00 Overcast SCT090 OVC120 42.8 28.4 57% 29.93 0.0
04 20:30 NW 3 10.00 Overcast BKN090 OVC110 42.8 28.4 57% 29.92 0.0
04 20:10 N 5 10.00 Overcast BKN090 OVC110 42.8 28.4 57% 41 29.91 0.0
04 19:50 NW 7 10.00 Overcast OVC080 42.8 28.4 57% 39 29.91 0.0
04 19:30 N 10 10.00 Overcast OVC080 44.6 28.4 53% 40 29.91 0.0
04 19:10 N 7 10.00 Overcast BKN070 OVC090 44.6 28.4 53% 41 29.91 0.0
04 18:50 NW 9 10.00 Overcast OVC070 44.6 28.4 53% 40 29.91 0.0
04 18:30 N 12 G 21 10.00 Overcast OVC070 44.6 26.6 49% 39 29.9 0.0
04 18:10 N 13 G 20 10.00 Overcast SCT045 OVC070 46.4 26.6 46% 41 29.9 0.0
04 17:50 N 16 G 22 10.00 Overcast SCT047 OVC070 46.4 26.6 46% 40 29.9 0.0
04 17:30 NW 18 G 23 10.00 Overcast OVC070 46.4 26.6 46% 40 29.89 0.0
04 17:10 N 13 G 22 10.00 Overcast OVC070 48.2 23 37% 43 29.89 0.0
04 16:50 NW 16 10.00 Overcast OVC070 50 23 35% 45 29.88 0.0
04 16:30 N 21 G 26 10.00 Overcast and Breezy OVC070 48.2 23 37% 42 29.88 0.0
04 15:50 NW 16 10.00 Overcast SCT050 OVC070 50 24.8 37% 45 29.88 0.0
04 15:30 N 15 G 22 10.00 Overcast SCT050 OVC070 50 23 35% 45 29.88 0.0
04 15:10 N 16 G 22 10.00 Overcast OVC070 51.8 23 32% 29.88 0.0
04 14:50 N 20 G 25 10.00 Overcast BKN049 OVC070 53.6 24.8 33% 29.88 0.0
04 14:30 NW 14 G 22 10.00 Mostly Cloudy BKN049 BKN070 53.6 26.6 35% 29.88 0.0
04 14:10 N 15 G 21 10.00 Partly Cloudy SCT049 SCT055 SCT070 53.6 26.6 35% 29.88 0.0
Date Time (mdt) Wind (mph) Vis. (mi.) Weather Sky Cond. Air Dwpt Max. Min. Relative Humidity Wind Chill (°F) Heat Index (°F) altimeter (in) sea level (mb) 1 hr 3 hr 6 hr
6 hour
Temperature (ºF) Pressure Precipitation (in)